createdAt,value
2018-10-16T00:01:31.923Z,82.27
2018-10-16T00:04:02.606Z,82.46
2018-10-16T00:06:33.376Z,82.37
2018-10-16T00:09:04.068Z,82.44
2018-10-16T00:11:34.745Z,82.51
2018-10-16T00:14:05.442Z,82.40
2018-10-16T00:16:36.106Z,82.17
2018-10-16T00:19:06.832Z,82.06
2018-10-16T00:21:37.777Z,82.10
2018-10-16T00:24:08.456Z,82.12
2018-10-16T00:26:39.515Z,82.29
2018-10-16T00:29:10.180Z,82.53
2018-10-16T00:31:40.865Z,82.49
2018-10-16T00:34:11.481Z,82.46
2018-10-16T00:36:42.322Z,82.46
2018-10-16T00:39:14.527Z,82.35
2018-10-16T00:41:45.270Z,82.46
2018-10-16T00:44:15.868Z,82.52
2018-10-16T00:46:46.563Z,82.49
2018-10-16T00:49:17.178Z,82.61
2018-10-16T00:51:47.921Z,82.81
2018-10-16T00:54:18.570Z,82.93
2018-10-16T00:56:49.256Z,82.86
2018-10-16T00:59:19.850Z,82.68
2018-10-16T01:01:50.515Z,82.85
2018-10-16T01:04:21.540Z,83.01
2018-10-16T01:06:52.560Z,83.02
2018-10-16T01:09:23.288Z,82.96
2018-10-16T01:11:53.940Z,82.02
2018-10-16T01:14:24.580Z,82.02
2018-10-16T01:16:55.697Z,82.45
2018-10-16T01:19:26.339Z,82.76
2018-10-16T01:21:57.382Z,82.96
2018-10-16T01:24:28.310Z,83.17
2018-10-16T01:26:59.024Z,83.14
2018-10-16T01:29:29.692Z,83.20
2018-10-16T01:32:00.661Z,83.30
2018-10-16T01:34:31.433Z,83.28
2018-10-16T01:37:02.065Z,83.34
2018-10-16T01:39:32.799Z,83.49
2018-10-16T01:42:03.437Z,83.51
2018-10-16T01:44:35.167Z,83.41
2018-10-16T01:47:06.025Z,83.40
2018-10-16T01:49:37.379Z,83.27
2018-10-16T01:52:08.079Z,82.98
2018-10-16T01:54:38.717Z,82.77
2018-10-16T01:57:09.461Z,82.71
2018-10-16T01:59:40.445Z,82.70
2018-10-16T02:02:11.113Z,82.54
2018-10-16T02:04:41.811Z,82.73
2018-10-16T02:07:13.047Z,82.99
2018-10-16T02:09:44.563Z,83.19
2018-10-16T02:12:15.217Z,83.26
2018-10-16T02:14:45.940Z,83.41
2018-10-16T02:17:16.579Z,83.39
2018-10-16T02:19:47.762Z,83.44
2018-10-16T02:22:18.558Z,83.52
2018-10-16T02:24:49.184Z,83.57
2018-10-16T02:27:19.891Z,83.59
2018-10-16T02:29:50.625Z,83.66
2018-10-16T02:32:21.287Z,83.64
2018-10-16T02:34:52.011Z,83.64
2018-10-16T02:37:22.675Z,83.66
2018-10-16T02:39:53.360Z,83.48
2018-10-16T02:42:24.028Z,83.20
2018-10-16T02:44:54.688Z,83.04
2018-10-16T02:47:26.502Z,82.94
2018-10-16T02:49:57.146Z,83.06
2018-10-16T02:52:27.831Z,83.08
2018-10-16T02:54:59.100Z,83.19
2018-10-16T02:57:29.800Z,83.40
2018-10-16T03:00:00.769Z,83.47
2018-10-16T03:02:31.516Z,83.43
2018-10-16T03:05:02.574Z,83.23
2018-10-16T03:07:33.233Z,83.45
2018-10-16T03:10:04.073Z,83.61
2018-10-16T03:12:34.674Z,83.65
2018-10-16T03:15:06.273Z,83.41
2018-10-16T03:17:36.916Z,83.15
2018-10-16T03:20:07.837Z,83.32
2018-10-16T03:22:38.776Z,83.42
2018-10-16T03:25:12.023Z,83.63
2018-10-16T03:27:42.953Z,83.57
2018-10-16T03:30:13.961Z,83.47
2018-10-16T03:32:44.675Z,83.34
2018-10-16T03:35:15.352Z,83.28
2018-10-16T03:37:46.006Z,83.24
2018-10-16T03:40:16.776Z,83.36
2018-10-16T03:42:47.414Z,83.31
2018-10-16T03:45:18.100Z,83.43
2018-10-16T03:47:48.754Z,83.52
2018-10-16T03:50:19.443Z,83.54
2018-10-16T03:52:50.102Z,83.63
2018-10-16T03:55:21.121Z,83.78
2018-10-16T03:57:52.058Z,83.74
2018-10-16T04:00:22.712Z,83.71
2018-10-16T04:02:53.892Z,83.52
2018-10-16T04:05:24.546Z,83.47
2018-10-16T04:07:55.233Z,83.56
2018-10-16T04:10:25.941Z,83.70
2018-10-16T04:12:56.664Z,83.81
2018-10-16T04:15:27.353Z,84.12
2018-10-16T04:17:58.472Z,84.38
2018-10-16T04:20:29.145Z,84.37
2018-10-16T04:22:59.837Z,84.15
2018-10-16T04:25:30.399Z,84.04
2018-10-16T04:28:01.217Z,84.12
2018-10-16T04:30:31.927Z,84.33
2018-10-16T04:33:02.549Z,84.34
2018-10-16T04:35:33.190Z,84.27
2018-10-16T04:38:03.841Z,84.19
2018-10-16T04:40:34.623Z,84.06
2018-10-16T04:43:06.268Z,83.87
2018-10-16T04:45:36.808Z,83.94
2018-10-16T04:48:07.920Z,84.09
2018-10-16T04:50:38.872Z,83.95
2018-10-16T04:53:09.526Z,83.87
2018-10-16T04:55:40.537Z,84.02
2018-10-16T04:58:11.213Z,84.33
2018-10-16T05:00:41.858Z,84.59
2018-10-16T05:03:12.517Z,84.55
2018-10-16T05:05:43.193Z,84.58
2018-10-16T05:08:13.858Z,84.71
2018-10-16T05:10:44.485Z,84.86
2018-10-16T05:13:15.248Z,84.94
2018-10-16T05:15:45.838Z,84.92
2018-10-16T05:18:16.479Z,85.02
2018-10-16T05:20:47.104Z,85.19
2018-10-16T05:23:17.805Z,85.33
2018-10-16T05:25:48.451Z,85.37
2018-10-16T05:28:19.118Z,85.28
2018-10-16T05:30:50.125Z,85.06
2018-10-16T05:33:20.791Z,84.79
2018-10-16T05:35:52.077Z,84.61
2018-10-16T05:38:23.269Z,84.77
2018-10-16T05:40:54.047Z,84.91
2018-10-16T05:43:24.938Z,85.11
2018-10-16T05:45:55.570Z,85.15
2018-10-16T05:48:26.180Z,85.20
2018-10-16T05:50:56.942Z,85.38
2018-10-16T05:53:27.509Z,85.44
2018-10-16T05:56:06.342Z,85.46
2018-10-16T05:58:37.401Z,85.51
2018-10-16T06:01:08.064Z,85.48
2018-10-16T06:03:38.711Z,85.45
2018-10-16T06:06:09.898Z,85.42
2018-10-16T06:08:41.179Z,85.28
2018-10-16T06:11:11.784Z,85.26
2018-10-16T06:13:42.568Z,85.18
2018-10-16T06:16:13.140Z,85.10
2018-10-16T06:18:43.802Z,85.15
2018-10-16T06:21:14.451Z,85.18
2018-10-16T06:23:45.103Z,85.06
2018-10-16T06:26:16.145Z,84.82
2018-10-16T06:28:46.755Z,84.77
2018-10-16T06:31:17.820Z,84.91
2018-10-16T06:33:48.539Z,85.05
2018-10-16T06:36:19.133Z,85.24
2018-10-16T06:38:50.352Z,85.37
2018-10-16T06:41:21.135Z,85.38
2018-10-16T06:43:51.712Z,85.45
2018-10-16T06:46:22.339Z,85.49
2018-10-16T06:48:53.716Z,85.63
2018-10-16T06:51:24.234Z,85.72
2018-10-16T06:53:54.849Z,85.73
2018-10-16T06:56:25.553Z,85.60
2018-10-16T06:58:56.717Z,85.36
2018-10-16T07:01:27.921Z,85.04
2018-10-16T07:03:58.609Z,84.85
2018-10-16T07:06:29.279Z,84.88
2018-10-16T07:09:00.267Z,84.98
2018-10-16T07:11:31.118Z,84.80
2018-10-16T07:14:01.776Z,85.32
2018-10-16T07:16:32.577Z,85.45
2018-10-16T07:19:03.311Z,85.52
2018-10-16T07:21:34.128Z,85.55
2018-10-16T07:24:05.062Z,85.54
2018-10-16T07:26:35.611Z,85.47
2018-10-16T07:29:07.078Z,85.36
2018-10-16T07:31:37.809Z,85.37
2018-10-16T07:34:08.459Z,85.38
2018-10-16T07:36:39.641Z,85.32
2018-10-16T07:39:12.531Z,85.29
2018-10-16T07:41:43.614Z,85.30
2018-10-16T07:44:14.329Z,85.36
2018-10-16T07:46:45.009Z,85.41
2018-10-16T07:49:15.674Z,85.45
2018-10-16T07:51:46.309Z,85.28
2018-10-16T07:54:17.351Z,85.26
2018-10-16T07:56:48.256Z,85.30
2018-10-16T07:59:19.074Z,85.17
2018-10-16T08:01:49.714Z,84.99
2018-10-16T08:04:20.407Z,84.80
2018-10-16T08:06:51.037Z,84.49
2018-10-16T08:09:21.664Z,84.30
2018-10-16T08:11:52.801Z,84.16
2018-10-16T08:14:23.480Z,83.59
2018-10-16T08:16:54.087Z,83.66
2018-10-16T08:19:24.786Z,83.68
2018-10-16T08:21:55.738Z,83.74
2018-10-16T08:24:26.823Z,83.60
2018-10-16T08:26:57.966Z,83.24
2018-10-16T08:29:28.590Z,82.98
2018-10-16T08:31:59.289Z,82.98
2018-10-16T08:34:30.151Z,82.85
2018-10-16T08:37:01.325Z,82.24
2018-10-16T08:39:34.157Z,81.94
2018-10-16T08:42:30.028Z,81.88
2018-10-16T08:45:26.888Z,81.89
2018-10-16T08:48:33.294Z,81.38
2018-10-16T08:51:54.015Z,81.13
2018-10-16T08:54:24.834Z,80.87
2018-10-16T08:56:55.477Z,80.70
2018-10-16T08:59:26.266Z,80.54
2018-10-16T09:01:56.981Z,80.33
2018-10-16T09:04:28.108Z,79.92
2018-10-16T09:06:58.765Z,79.82
2018-10-16T09:09:29.606Z,79.54
2018-10-16T09:12:00.891Z,79.10
2018-10-16T09:14:31.903Z,78.98
2018-10-16T09:17:02.518Z,78.90
2018-10-16T09:19:33.591Z,78.63
2018-10-16T09:22:04.296Z,78.63
2018-10-16T09:24:35.050Z,78.98
2018-10-16T09:27:05.667Z,78.58
2018-10-16T09:29:36.311Z,78.44
2018-10-16T09:32:07.222Z,78.53
2018-10-16T09:34:37.849Z,78.97
2018-10-16T09:37:08.585Z,78.68
2018-10-16T09:39:39.271Z,78.67
2018-10-16T09:42:09.838Z,78.69
2018-10-16T09:44:40.819Z,78.21
2018-10-16T09:47:11.514Z,77.85
2018-10-16T09:49:42.225Z,77.07
2018-10-16T09:52:12.806Z,76.93
2018-10-16T09:54:43.418Z,76.68
2018-10-16T09:57:14.126Z,76.64
2018-10-16T09:59:44.815Z,76.68
2018-10-16T10:02:15.487Z,76.40
2018-10-16T10:04:46.146Z,76.57
2018-10-16T10:07:16.860Z,77.21
2018-10-16T10:09:47.493Z,77.21
2018-10-16T10:12:18.279Z,76.94
2018-10-16T10:14:49.020Z,76.57
2018-10-16T10:17:19.724Z,76.56
2018-10-16T10:19:50.384Z,76.48
2018-10-16T10:22:21.147Z,76.08
2018-10-16T10:24:52.061Z,75.98
2018-10-16T10:27:22.795Z,76.41
2018-10-16T10:29:53.512Z,75.93
2018-10-16T10:32:24.678Z,75.97
2018-10-16T10:34:55.349Z,75.85
2018-10-16T10:37:25.948Z,76.00
2018-10-16T10:39:57.538Z,75.98
2018-10-16T10:42:28.289Z,76.39
2018-10-16T10:44:58.954Z,76.35
2018-10-16T10:47:29.602Z,76.40
2018-10-16T10:50:00.379Z,76.20
2018-10-16T10:52:30.859Z,76.00
2018-10-16T10:55:01.521Z,77.00
2018-10-16T10:57:32.621Z,77.60
2018-10-16T11:00:03.314Z,77.57
2018-10-16T11:02:33.946Z,78.13
2018-10-16T11:05:04.562Z,78.91
2018-10-16T11:07:35.266Z,79.26
2018-10-16T11:10:06.316Z,79.64
2018-10-16T11:12:37.255Z,80.12
2018-10-16T11:15:08.935Z,80.51
2018-10-16T11:17:40.264Z,80.60
2018-10-16T11:20:13.323Z,80.82
2018-10-16T11:22:44.005Z,81.18
2018-10-16T11:25:14.989Z,81.63
2018-10-16T11:27:46.264Z,81.94
2018-10-16T11:30:17.147Z,81.75
2018-10-16T11:32:47.735Z,81.87
2018-10-16T11:35:18.340Z,81.93
2018-10-16T11:37:48.993Z,81.82
2018-10-16T11:40:19.623Z,81.79
2018-10-16T11:42:50.624Z,81.86
2018-10-16T11:45:21.305Z,81.66
2018-10-16T11:47:51.996Z,81.52
2018-10-16T11:50:26.772Z,81.50
2018-10-16T11:53:00.910Z,81.23
2018-10-16T11:55:32.196Z,81.19
2018-10-16T11:58:02.956Z,80.89
2018-10-16T12:00:33.650Z,80.73
2018-10-16T12:03:04.248Z,80.06
2018-10-16T12:05:35.025Z,79.73
2018-10-16T12:08:05.742Z,79.08
2018-10-16T12:10:36.363Z,79.06
2018-10-16T12:13:07.807Z,78.62
2018-10-16T12:15:39.740Z,78.39
2018-10-16T12:18:15.364Z,78.43
2018-10-16T12:21:21.290Z,78.44
2018-10-16T12:23:52.485Z,78.25
2018-10-16T12:26:23.639Z,79.17
2018-10-16T12:28:54.684Z,79.46
2018-10-16T12:31:25.804Z,78.88
2018-10-16T12:33:56.490Z,78.82
2018-10-16T12:36:27.107Z,78.43
2018-10-16T12:38:57.770Z,78.48
2018-10-16T12:41:28.664Z,78.62
2018-10-16T12:43:59.333Z,78.27
2018-10-16T12:46:30.027Z,77.24
2018-10-16T12:49:00.653Z,76.63
2018-10-16T12:51:31.303Z,76.26
2018-10-16T12:54:02.038Z,76.76
2018-10-16T12:56:32.632Z,76.63
2018-10-16T12:59:03.320Z,76.72
2018-10-16T13:01:34.090Z,76.86
2018-10-16T13:04:04.979Z,76.60
2018-10-16T13:06:35.738Z,76.45
2018-10-16T13:09:08.756Z,76.28
2018-10-16T13:11:39.644Z,76.29
2018-10-16T13:14:10.337Z,76.16
2018-10-16T13:16:41.333Z,74.73
2018-10-16T13:19:12.032Z,73.14
2018-10-16T13:21:42.992Z,73.70
2018-10-16T13:24:13.650Z,73.23
2018-10-16T13:26:44.240Z,72.27
2018-10-16T13:29:14.967Z,72.44
2018-10-16T13:31:45.496Z,73.10
2018-10-16T13:34:16.223Z,73.08
2018-10-16T13:36:46.868Z,73.27
2018-10-16T13:39:17.499Z,72.38
2018-10-16T13:41:48.386Z,72.83
2018-10-16T13:44:18.992Z,72.69
2018-10-16T13:46:49.652Z,72.47
2018-10-16T13:49:20.308Z,72.89
2018-10-16T13:51:50.951Z,72.57
2018-10-16T13:54:21.653Z,72.76
2018-10-16T13:56:52.309Z,73.37
2018-10-16T13:59:22.914Z,73.53
2018-10-16T14:01:53.591Z,73.82
2018-10-16T14:04:24.543Z,73.96
2018-10-16T14:06:55.218Z,74.50
2018-10-16T14:09:25.819Z,75.15
2018-10-16T14:11:56.474Z,76.02
2018-10-16T14:14:27.120Z,76.63
2018-10-16T14:16:57.846Z,76.83
2018-10-16T14:19:28.479Z,77.14
2018-10-16T14:21:59.426Z,77.05
2018-10-16T14:24:31.109Z,76.48
2018-10-16T14:27:01.876Z,75.72
2018-10-16T14:29:32.536Z,75.95
2018-10-16T14:32:03.284Z,76.08
2018-10-16T14:34:34.168Z,75.29
2018-10-16T14:37:04.900Z,75.37
2018-10-16T14:39:35.542Z,75.09
2018-10-16T14:42:07.192Z,75.32
2018-10-16T14:44:37.868Z,75.65
2018-10-16T14:47:08.821Z,75.93
2018-10-16T14:49:40.383Z,76.21
2018-10-16T14:52:14.778Z,76.86
2018-10-16T14:54:45.388Z,77.32
2018-10-16T14:57:16.085Z,77.45
2018-10-16T14:59:46.797Z,77.59
2018-10-16T15:02:17.470Z,78.00
2018-10-16T15:04:48.096Z,78.34
2018-10-16T15:07:18.774Z,78.05
2018-10-16T15:09:49.467Z,78.31
2018-10-16T15:12:31.137Z,78.75
2018-10-16T15:15:02.977Z,78.53
2018-10-16T15:17:33.720Z,77.77
2018-10-16T15:20:04.740Z,78.24
2018-10-16T15:22:35.302Z,79.15
2018-10-16T15:25:06.946Z,80.40
2018-10-16T15:27:37.644Z,80.40
2018-10-16T15:30:10.018Z,80.40
2018-10-16T15:35:12.272Z,81.19
2018-10-16T15:37:42.993Z,81.23
2018-10-16T15:40:13.840Z,81.21
2018-10-16T15:42:44.373Z,81.18
2018-10-16T15:45:15.121Z,81.44
2018-10-16T15:47:46.582Z,81.45
2018-10-16T15:50:17.316Z,81.29
2018-10-16T15:52:49.067Z,81.21
2018-10-16T15:55:19.816Z,81.34
2018-10-16T15:57:50.685Z,81.17
2018-10-16T16:00:21.162Z,81.01
2018-10-16T16:02:51.878Z,81.51
2018-10-16T16:05:22.501Z,82.07
2018-10-16T16:07:53.246Z,82.44
2018-10-16T16:10:23.971Z,82.65
2018-10-16T16:12:54.683Z,82.84
2018-10-16T16:15:25.311Z,82.75
2018-10-16T16:17:56.005Z,82.62
2018-10-16T16:20:26.659Z,82.40
2018-10-16T16:22:57.383Z,82.41
2018-10-16T16:25:28.460Z,82.88
2018-10-16T16:27:59.237Z,83.23
2018-10-16T16:30:30.232Z,83.51
2018-10-16T16:33:00.942Z,83.68
2018-10-16T16:35:31.913Z,83.78
2018-10-16T16:38:02.618Z,83.82
2018-10-16T16:40:33.257Z,83.94
2018-10-16T16:43:03.907Z,84.14
2018-10-16T16:45:34.576Z,84.29
2018-10-16T16:48:05.263Z,84.40
2018-10-16T16:50:35.984Z,84.49
2018-10-16T16:53:06.980Z,84.62
2018-10-16T16:55:37.608Z,84.83
2018-10-16T16:58:08.441Z,84.97
2018-10-16T17:00:38.983Z,85.09
2018-10-16T17:03:09.640Z,85.24
2018-10-16T17:05:40.241Z,85.36
2018-10-16T17:08:10.998Z,85.47
2018-10-16T17:10:41.644Z,85.44
2018-10-16T17:13:12.379Z,85.40
2018-10-16T17:15:43.214Z,85.39
2018-10-16T17:18:14.066Z,85.42
2018-10-16T17:20:45.748Z,85.50
2018-10-16T17:23:16.572Z,85.70
2018-10-16T17:25:47.937Z,85.85
2018-10-16T17:28:18.514Z,85.95
2018-10-16T17:30:49.232Z,85.89
2018-10-16T17:33:19.956Z,85.82
2018-10-16T17:35:50.649Z,85.80
2018-10-16T17:38:21.891Z,85.80
2018-10-16T17:40:53.182Z,85.92
2018-10-16T17:43:27.497Z,86.06
2018-10-16T17:45:58.225Z,86.24
2018-10-16T17:48:29.277Z,86.42
2018-10-16T17:50:59.974Z,86.59
2018-10-16T17:53:31.043Z,86.71
2018-10-16T17:56:01.794Z,86.78
2018-10-16T17:58:32.695Z,86.74
2018-10-16T18:01:03.346Z,86.63
2018-10-16T18:03:34.054Z,86.63
2018-10-16T18:06:05.559Z,86.60
2018-10-16T18:08:36.947Z,86.71
2018-10-16T18:11:08.181Z,86.75
2018-10-16T18:13:38.913Z,86.76
2018-10-16T18:16:09.609Z,86.75
2018-10-16T18:18:40.296Z,86.77
2018-10-16T18:21:11.012Z,86.79
2018-10-16T18:23:41.666Z,86.82
2018-10-16T18:26:12.458Z,86.74
2018-10-16T18:28:43.285Z,86.68
2018-10-16T18:31:13.929Z,86.44
2018-10-16T18:33:44.728Z,86.30
2018-10-16T18:36:15.407Z,86.48
2018-10-16T18:38:46.186Z,86.66
2018-10-16T18:41:16.898Z,86.81
2018-10-16T18:43:47.648Z,86.83
2018-10-16T18:46:18.416Z,86.82
2018-10-16T18:48:49.142Z,86.85
2018-10-16T18:51:19.833Z,86.87
2018-10-16T18:53:50.590Z,86.87
2018-10-16T18:56:21.909Z,86.87
2018-10-16T18:58:52.664Z,86.98
2018-10-16T19:01:23.365Z,87.05
2018-10-16T19:03:54.066Z,87.19
2018-10-16T19:06:24.898Z,87.32
2018-10-16T19:08:55.568Z,87.33
2018-10-16T19:11:26.281Z,87.40
2018-10-16T19:13:57.148Z,87.58
2018-10-16T19:16:27.774Z,87.58
2018-10-16T19:18:58.735Z,87.56
2018-10-16T19:21:29.444Z,87.45
2018-10-16T19:24:00.221Z,87.33
2018-10-16T19:26:31.048Z,87.06
2018-10-16T19:29:01.697Z,86.84
2018-10-16T19:31:32.886Z,86.88
2018-10-16T19:34:03.663Z,87.15
2018-10-16T19:36:34.444Z,87.33
2018-10-16T19:39:06.074Z,87.41
2018-10-16T19:41:36.748Z,87.36
2018-10-16T19:44:07.498Z,87.38
2018-10-16T19:46:38.218Z,87.42
2018-10-16T19:49:09.175Z,87.63
2018-10-16T19:51:39.970Z,87.86
2018-10-16T19:54:10.691Z,88.01
2018-10-16T19:56:41.691Z,88.07
2018-10-16T19:59:13.658Z,88.00
2018-10-16T20:01:44.315Z,87.86
2018-10-16T20:04:15.070Z,87.58
2018-10-16T20:06:45.769Z,87.37
2018-10-16T20:09:16.597Z,87.26
2018-10-16T20:11:47.349Z,87.38
2018-10-16T20:14:18.080Z,87.57
2018-10-16T20:16:48.664Z,87.71
2018-10-16T20:19:19.742Z,87.86
2018-10-16T20:21:50.498Z,87.83
2018-10-16T20:24:21.254Z,87.66
2018-10-16T20:26:51.958Z,87.53
2018-10-16T20:29:22.784Z,87.53
2018-10-16T20:31:53.509Z,87.66
2018-10-16T20:34:24.162Z,87.73
2018-10-16T20:36:55.254Z,87.69
2018-10-16T20:39:26.070Z,87.51
2018-10-16T20:41:57.777Z,87.20
2018-10-16T20:44:28.405Z,86.94
2018-10-16T20:46:59.510Z,86.92
2018-10-16T20:49:30.303Z,87.14
2018-10-16T20:52:01.378Z,87.42
2018-10-16T20:54:32.084Z,87.68
2018-10-16T20:57:02.791Z,87.86
2018-10-16T20:59:33.594Z,87.89
2018-10-16T21:02:04.340Z,87.73
2018-10-16T21:04:35.072Z,87.49
2018-10-16T21:07:05.923Z,87.30
2018-10-16T21:09:36.459Z,87.36
2018-10-16T21:12:07.271Z,87.59
2018-10-16T21:14:37.894Z,87.76
2018-10-16T21:17:08.516Z,87.92
2018-10-16T21:19:39.209Z,87.91
2018-10-16T21:22:10.069Z,87.88
2018-10-16T21:24:40.687Z,87.74
2018-10-16T21:27:12.624Z,87.77
2018-10-16T21:29:43.300Z,87.71
2018-10-16T21:32:14.044Z,87.47
2018-10-16T21:34:44.790Z,87.14
2018-10-16T21:37:16.005Z,86.94
2018-10-16T21:39:46.753Z,87.01
2018-10-16T21:42:17.753Z,87.07
2018-10-16T21:44:48.424Z,87.17
2018-10-16T21:47:19.104Z,87.12
2018-10-16T21:49:50.618Z,86.94
2018-10-16T21:52:21.260Z,86.95
2018-10-16T21:57:22.657Z,87.09
2018-10-16T21:59:53.306Z,87.21
2018-10-16T22:02:41.494Z,87.28
2018-10-16T22:05:12.650Z,87.28
2018-10-16T22:07:43.622Z,87.17
2018-10-16T22:10:14.417Z,87.16
2018-10-16T22:12:46.935Z,87.31
2018-10-16T22:15:18.264Z,87.25
2018-10-16T22:17:49.365Z,87.12
2018-10-16T22:20:20.138Z,87.00
2018-10-16T22:22:50.809Z,86.80
2018-10-16T22:25:21.612Z,86.60
2018-10-16T22:27:52.365Z,86.55
2018-10-16T22:30:23.437Z,86.46
2018-10-16T22:32:54.113Z,86.37
2018-10-16T22:35:24.810Z,86.56
2018-10-16T22:37:55.440Z,86.79
2018-10-16T22:40:26.116Z,86.90
2018-10-16T22:42:56.971Z,86.92
2018-10-16T22:45:27.674Z,87.08
2018-10-16T22:47:59.237Z,87.24
2018-10-16T22:50:30.443Z,87.19
2018-10-16T22:53:01.172Z,87.11
2018-10-16T22:55:34.838Z,87.06
2018-10-16T22:58:05.593Z,86.94
2018-10-16T23:00:36.359Z,86.92
2018-10-16T23:03:07.131Z,87.09
2018-10-16T23:05:37.817Z,87.13
2018-10-16T23:08:09.609Z,87.23
2018-10-16T23:10:40.861Z,87.23
2018-10-16T23:13:12.144Z,86.82
2018-10-16T23:15:44.005Z,86.61
2018-10-16T23:18:15.888Z,86.37
2018-10-16T23:20:51.167Z,86.11
2018-10-16T23:23:22.108Z,86.07
2018-10-16T23:25:54.073Z,85.98
2018-10-16T23:28:25.207Z,85.85
2018-10-16T23:30:56.617Z,85.56
2018-10-16T23:33:29.516Z,85.43
2018-10-16T23:36:01.685Z,85.58
2018-10-16T23:38:33.020Z,85.99
2018-10-16T23:41:04.251Z,86.25
2018-10-16T23:43:36.446Z,86.44
2018-10-16T23:46:11.572Z,86.59
2018-10-16T23:48:44.616Z,86.52
2018-10-16T23:51:15.825Z,86.23
2018-10-16T23:53:47.674Z,86.09
2018-10-16T23:56:18.615Z,86.22
2018-10-16T23:58:50.848Z,86.37
